Palembang
Home > Kaskuser Regional > INDONESIA > SUMATERA > Palembang > ▓▓▒▒ Radar Cuaca Palembang dan Sekitarnya ▒▒▓▓
Total Views: 14903 Share : Facebook ShareFacebook Twitter ShareTwitter Google+ ShareGoogle+
Page 13 of 64 | ‹ First  < 8 9 10 11 12 13 14 15 16 17 18 >  Last ›

dianabazz - 20/07/2011 09:40 AM
#241

▓▓▒▒ Radar Cuaca Palembang dan Sekitarnya ▒▒▓▓
dianabazz - 20/07/2011 09:13 PM
#242

T A F O R


FTID32 WIPP 201050
TAF WIPP 201030Z 2012/2112 10006KT 9999 SCT017 TEMPO 2020/2024 00000KT 3000 HZ FEW015 BECMG 2101/2103 17007KT 9999 SCT015 TEMPO 2109/2112 09010KT 7000 -RA FEW018CB SCT015=


Bingung cara bacanya???bingungs
klik aja Cara membaca TAFOR
dianabazz - 21/07/2011 09:11 AM
#243

T A F O R


FTID32 WIPP 202335
TAF WIPP 202330Z 2100/2124 15008KT 9999 SCT017 TEMPO 2109/2113 20010KT 6000 -RA FEW020CB BKN016 TEMPO 2120/2124 12005KT 4000 BR FEW015=


Bingung cara bacanya???bingungs
klik aja Cara membaca TAFOR
dianabazz - 21/07/2011 01:02 PM
#244

http://img837.imageshack.us/img837/8386/22juli.jpg[/IMG]
dianabazz - 21/07/2011 01:01 PM
#245

T A F O R


FTID32 WIPP 210430
TAF WIPP 210430Z 2106/2206 15008KT 9999 NSW SCT017 TEMPO 1009/2113 20010KT 7000 -RA FEW020CB SCT016 TEMPO 2121/2201 12005KT 3000 HZ SCT012=


Bingung cara bacanya???bingungs
klik aja Cara membaca TAFOR
dianabazz - 21/07/2011 01:03 PM
#246

▓▓▒▒ Radar Cuaca Palembang dan Sekitarnya ▒▒▓▓
dianabazz - 21/07/2011 01:04 PM
#247

T A F O R


FTID32 WIPP 210430
TAF WIPP 210430Z 2106/2206 15008KT 9999 NSW SCT017 TEMPO 1009/2113 20010KT 7000 -RA FEW020CB SCT016 TEMPO 2121/2201 12005KT 3000 HZ SCT012=


Bingung cara bacanya???bingungs
klik aja Cara membaca TAFOR
mangcak85 - 21/07/2011 02:17 PM
#248

Quote:
Original Posted By dianabazz
klo buat Hotspot kebetulan belum ado di website mang
cubo bae ke SINI

atau cek di website DEPHUT
berikut mapping hotspot terakhir

Spoiler for Peta HOTSPOT versi DEPHUT
▓▓▒▒ Radar Cuaca Palembang dan Sekitarnya ▒▒▓▓



ok deah,...
yo payoo mokase lagi klo cem itu.,,..kiss
dianabazz - 21/07/2011 02:25 PM
#249

Quote:
Original Posted By mangcak85
ok deah,...
yo payoo mokase lagi klo cem itu.,,..kiss

payo samo2 mang
dianabazz - 22/07/2011 02:42 PM
#250

▓▓▒▒ Radar Cuaca Palembang dan Sekitarnya ▒▒▓▓
dianabazz - 22/07/2011 02:46 PM
#251

T A F O R


FTID32 WIPP 220500
TAF WIPP 220500Z 2206/2306 18008KT 9999 NSW SCT016 TEMPO 2208/2212 15010KT 6000 -RA FEW020CB BKN016 TEMPO 2220/2224 20006KT 1000 BR SCT012 BECMG 2301/2303 13006KT 9999 SCT016=


Bingung cara bacanya???bingungs
klik aja Cara membaca TAFOR
blekatze - 23/07/2011 11:48 AM
#252

cakmano laporan cuaca hari ini n besok ye hammer:

kami nak sepedahan \(
dianabazz - 23/07/2011 09:26 PM
#253

▓▓▒▒ Radar Cuaca Palembang dan Sekitarnya ▒▒▓▓
dianabazz - 23/07/2011 09:27 PM
#254

Quote:
Original Posted By blekatze
cakmano laporan cuaca hari ini n besok ye hammer:

kami nak sepedahan \(

cek bae mang di trit kan ado
sori baru update malem, baru pacak tebuka laptop
dianabazz - 23/07/2011 09:31 PM
#255

T A F O R


FTID32 WIPP 231112
TAF WIPP 231100Z 2312/2412 16008KT 9999 SCT017 BECMG 2314/2316 20006KT 5000 -RA HZ BKN015 TEMPO 2320/2324 2000 SCT012 BECMG 2401/2403 22006KT 9999 SCT015 TEMPO 2406/2410 22010KT 7000 -TSRA FEW020CB BKN016=


Bingung cara bacanya???bingungs
klik aja Cara membaca TAFOR
dianabazz - 24/07/2011 01:20 PM
#256

T A F O R


FTID32 WIPP 240430
TAF WIPP 240430Z 2406/2506 14010KT 9999 NSW SCT016 TEMPO 2420/2424 00000KT 3000 HZ SCT012 BECMG 2501/2503 18008KT 9999 NSW SCT015=


Bingung cara bacanya???bingungs
klik aja Cara membaca TAFOR
dianabazz - 24/07/2011 01:47 PM
#257

▓▓▒▒ Radar Cuaca Palembang dan Sekitarnya ▒▒▓▓
dianabazz - 24/07/2011 01:48 PM
#258

▓▓▒▒ Radar Cuaca Palembang dan Sekitarnya ▒▒▓▓
dianabazz - 24/07/2011 02:47 PM
#259

Mungkin banyak yang bertanya:
"Katanya hujan ringan, tapi kok deras sekali ya??"

Penjelasan berikut ini mungkin akan menjawab pertanyaan semacam itu

[Quote=HUJAN]
Spoiler for Hujan

PENGERTIAN HUJAN

Hujan merupakan satu bentuk presipitasi yang berwujud cairan. Presipitasi sendiri dapat berwujud padat (misalnya salju dan hujan es) atau aerosol (seperti embun dan kabut). Hujan terbentuk apabila titik air yang terpisah jatuh kebumi dari awan. Tidak semua air hujan sampai ke permukaan bumi karena sebagian menguap ketika jatuh melalui udara kering. Hujan jenis ini disebut sebagai virga.

Hujan sangat berperan dalam siklus hidrologi. Ketika air laut menguap, ia berubah menjadi awan, lalu terkumpul menjadi awan mendung lalu turun kembali ke bumi dalam bentuk tetes-tetes air, dan akhirnya kembali ke laut melalui sungai dan anak sungai untuk mengulang daur dari awal lagi. Alat yang digunakan untuk mengukur jumlah curah hujan adalah Pluviometer atau penakar hujan (rain gage), yang dinyatakan sebagai kedalaman air yangterkumpul pada permukaan yang datar, dan diukur kurang lebih 0,25 mm. SatuanInternasional (SI) yang digunakan untuk curah hujan adalah “millimeter” yang merupakan singkatan dari liter per meter persegi

Curah hujan merupakan ketinggian air hujan yang terkumpul dalam tempatyang datar, tidak menguap, tidak meresap, dan tidak mengalir. Curah hujan 1 (satu) millimeter, artinya dalam luasan satu meter persegi pada tempat yang datar tertampung air setinggi satu millimeter atau tertampung air sebanyak satu liter. Butir air yang dapat keluar dari awan mencapai bumi sekurang-kurangnya bergaris tengah 200 mikrometer, bila kurang dari 200 mikrometer, butir-butir air tersebut sudah habis menguap sebelum mencapai bumi (1 mikrometer = 0,001cm). Curah hujan 1 (satu) milimeter artinya air hujan yang jatuh pada setiap permukaan seluas 1 m² setinggi 1mm, dengan tidak menguap, meresap atau mengalir atau sejumlah air hujan yang jatuh sebanyak 1 liter pada setiap luasan 1 m².


Spoiler for Klasifikasi Hujan

KLASIFIKASI CURAH HUJAN
[quote=Hujan Harian]
Hujan Harian

[*] < 5 mm per 24 jam = Sangat ringan
[*] 5 - 20 mm per 24 jam = Redang
[*] 21 - 50 mm per 24 jam = Sedang
[*] 51 - 100 mm per 24 jam = Lebat
[*] > 100 mm per 24 jam = Sangat lebat


[/quote]

[quote=Hujan per Jam]
Hujan per Jam

[*] < 1 mm per jam = Sangat ringan
[*] 1 - 5 mm per jam = Redang
[*] 5 - 10 mm per jam = Sedang
[*] 10 - 20 mm per jam = Lebat
[*] > 20 mm per jam = Sangat lebat


[/quote]


[/quote]

Nah, jadi tidak ada di istilah hujan deras di dalam pengertian curah hujan dalam prakiraan. Yang ada adalah seperti klasifikasi diatas

Jadi walaupun kata orang kebanyakan hujan deras tetapi pada saat penakaran harian hanya 25 mm berarti itu termasuk hujan sedang.

semoga bermanfaat
dianabazz - 25/07/2011 08:15 AM
#260

T A F O R


FTID32 WIPP 242330
TAF WIPP 242330 2500/2524 16005KT 5000 HZ FEW015 BECMG 2501/2503 15009KT 9999 NSW SCT017 TEMPO 2520/2524 13006KT 4000 HZ FEW015=


Bingung cara bacanya???bingungs
klik aja Cara membaca TAFOR
Page 13 of 64 | ‹ First  < 8 9 10 11 12 13 14 15 16 17 18 >  Last ›
Home > Kaskuser Regional > INDONESIA > SUMATERA > Palembang > ▓▓▒▒ Radar Cuaca Palembang dan Sekitarnya ▒▒▓▓